Time;durP1;ratioP1;P1;durP2;ratioP2;P2;SDS_P1;SDS_P2;PMS_P1;PMS_P2;Temp;Humidity;BMP_temperature;BMP_pressure;BME280_temperature;BME280_humidity;BME280_pressure;Samples;Min_cycle;Max_cycle;Signal;HPM_P1;HPM_P2
2023/06/21 00:00:11;;;;;;;7.37;5.80;;;;;;;17.54;77.89;97201.28;5028780;28;20307;-77
2023/06/21 00:02:40;;;;;;;6.27;5.63;;;;;;;17.56;77.96;97199.41;5030371;28;20287;-75
2023/06/21 00:05:08;;;;;;;10.07;7.00;;;;;;;17.43;79.41;97195.13;5029555;28;20292;-79
2023/06/21 00:07:35;;;;;;;9.00;6.10;;;;;;;17.42;79.75;97204.75;5030037;28;20218;-76
2023/06/21 00:10:03;;;;;;;9.03;6.77;;;;;;;17.27;80.62;97207.63;5029803;28;20205;-79
2023/06/21 00:12:30;;;;;;;8.20;6.77;;;;;;;17.14;81.25;97202.41;5028898;28;20758;-78
2023/06/21 00:14:57;;;;;;;13.00;7.40;;;;;;;17.21;81.73;97203.63;5030085;28;20212;-78
2023/06/21 00:17:25;;;;;;;11.27;7.90;;;;;;;17.12;81.04;97188.56;5028868;28;20644;-78
2023/06/21 00:19:54;;;;;;;9.70;7.43;;;;;;;17.16;81.72;97210.97;5030280;28;20207;-74
2023/06/21 00:22:22;;;;;;;11.47;8.67;;;;;;;17.08;82.14;97200.19;5027884;28;20248;-79
2023/06/21 00:24:49;;;;;;;13.83;8.10;;;;;;;17.21;81.67;97197.56;5029741;28;20702;-80
2023/06/21 00:27:18;;;;;;;10.93;9.07;;;;;;;17.03;81.85;97200.50;5029380;28;20207;-75
2023/06/21 00:29:45;;;;;;;10.43;9.30;;;;;;;16.99;81.91;97195.59;5029412;28;20202;-77
2023/06/21 00:32:12;;;;;;;14.33;8.77;;;;;;;16.84;82.39;97194.00;5030188;28;20730;-76
2023/06/21 00:34:40;;;;;;;11.50;9.00;;;;;;;17.03;81.65;97191.81;5010863;28;20219;-77
2023/06/21 00:37:07;;;;;;;14.43;9.17;;;;;;;17.01;81.70;97191.94;5029845;28;20637;-73
2023/06/21 00:39:34;;;;;;;11.10;8.73;;;;;;;17.22;81.13;97179.13;5028595;28;20572;-79
2023/06/21 00:42:01;;;;;;;10.50;7.97;;;;;;;17.27;80.39;97191.91;5012007;28;20231;-76
2023/06/21 00:44:28;;;;;;;10.00;8.43;;;;;;;17.60;79.47;97195.63;5029499;28;20207;-77
2023/06/21 00:46:56;;;;;;;9.50;7.87;;;;;;;17.64;78.17;97194.44;4986575;28;20236;-75
2023/06/21 00:49:25;;;;;;;9.17;7.87;;;;;;;17.76;77.86;97196.19;4990536;28;20205;-73
2023/06/21 00:51:58;;;;;;;9.13;7.53;;;;;;;17.75;78.51;97194.53;4987584;28;20259;-78
2023/06/21 00:55:15;;;;;;;9.10;7.33;;;;;;;17.83;78.07;97192.19;4990264;28;20759;-79
2023/06/21 00:58:35;;;;;;;11.80;7.73;;;;;;;17.81;78.37;97194.09;4988177;28;20294;-72
2023/06/21 01:01:56;;;;;;;8.27;7.27;;;;;;;17.85;78.17;97194.69;4986811;28;20694;-74
2023/06/21 01:05:17;;;;;;;10.07;7.40;;;;;;;17.66;79.02;97184.69;4989237;28;20197;-78
2023/06/21 01:08:36;;;;;;;15.60;7.57;;;;;;;17.79;78.54;97198.59;4989857;28;20215;-79
2023/06/21 01:12:11;;;;;;;10.53;8.47;;;;;;;17.65;78.55;97182.19;4989710;28;20275;-74
2023/06/21 01:15:38;;;;;;;10.87;7.57;;;;;;;17.80;77.77;97192.41;4989345;28;20235;-73
2023/06/21 01:19:01;;;;;;;13.33;8.30;;;;;;;17.58;78.51;97194.88;4988389;28;20243;-82
2023/06/21 01:22:21;;;;;;;13.40;7.73;;;;;;;17.44;78.52;97184.53;4988506;28;20205;-82
2023/06/21 01:25:30;;;;;;;10.50;8.87;;;;;;;17.69;77.82;97187.13;4987941;28;20208;-82
2023/06/21 01:28:53;;;;;;;12.50;8.60;;;;;;;17.82;77.54;97189.69;4987584;28;20200;-80
2023/06/21 01:32:14;;;;;;;14.50;8.87;;;;;;;17.60;76.63;97177.28;4986473;28;20225;-83
2023/06/21 01:35:38;;;;;;;11.13;7.80;;;;;;;17.72;76.33;97189.50;4985392;28;20197;-79
2023/06/21 01:38:59;;;;;;;11.70;8.20;;;;;;;17.59;75.98;97188.72;4987158;28;20212;-81
2023/06/21 01:42:20;;;;;;;11.73;7.73;;;;;;;17.47;76.53;97196.56;4989317;28;20201;-76
2023/06/21 01:45:41;;;;;;;12.20;7.70;;;;;;;17.17;77.01;97196.09;4988480;28;20701;-78
2023/06/21 01:49:02;;;;;;;10.20;7.23;;;;;;;17.25;77.13;97196.41;5005449;28;20820;-75
2023/06/21 01:52:24;;;;;;;10.03;6.93;;;;;;;17.34;77.19;97199.22;5027174;28;20209;-78
2023/06/21 01:55:45;;;;;;;14.07;7.50;;;;;;;17.11;77.66;97194.75;5027720;28;20258;-78
2023/06/21 01:59:06;;;;;;;8.30;6.70;;;;;;;16.93;78.27;97191.63;5009462;28;20210;-78
2023/06/21 02:02:27;;;;;;;8.17;6.60;;;;;;;16.55;79.41;97188.13;5008389;28;20232;-78
2023/06/21 02:05:49;;;;;;;9.40;6.80;;;;;;;16.62;80.00;97197.25;5008705;28;20210;-78
2023/06/21 02:09:10;;;;;;;13.97;7.37;;;;;;;16.61;80.49;97197.38;5027199;28;20298;-77
2023/06/21 02:12:33;;;;;;;12.93;8.17;;;;;;;16.48;81.82;97197.31;5009661;28;20582;-74
2023/06/21 02:15:54;;;;;;;10.33;7.63;;;;;;;16.39;83.26;97197.91;5026551;28;20664;-78
2023/06/21 02:19:15;;;;;;;10.03;7.60;;;;;;;16.46;83.15;97193.13;5025666;28;20194;-74
2023/06/21 02:22:55;;;;;;;12.87;8.70;;;;;;;16.85;81.58;97193.94;5026922;28;20191;-78
2023/06/21 02:26:17;;;;;;;11.10;7.87;;;;;;;16.84;80.91;97180.94;5027811;28;20215;-76
2023/06/21 02:29:38;;;;;;;12.90;7.90;;;;;;;16.99;80.20;97208.66;5009214;28;20222;-74
2023/06/21 02:32:59;;;;;;;10.17;7.93;;;;;;;17.01;79.81;97204.16;5008182;28;20230;-77
2023/06/21 02:36:21;;;;;;;11.93;8.50;;;;;;;17.04;79.23;97207.41;5025640;28;20271;-75
2023/06/21 02:39:44;;;;;;;13.33;7.83;;;;;;;17.18;78.85;97208.25;5026685;28;20234;-76
2023/06/21 02:43:05;;;;;;;13.20;8.30;;;;;;;17.25;78.51;97207.69;5026661;28;20286;-77
2023/06/21 02:46:25;;;;;;;13.23;7.67;;;;;;;17.16;79.03;97216.22;5007700;28;20214;-78
2023/06/21 02:49:46;;;;;;;12.57;8.23;;;;;;;17.11;78.76;97226.16;5007544;28;20206;-77
2023/06/21 02:53:09;;;;;;;15.27;8.00;;;;;;;16.79;80.53;97212.66;5025878;28;20272;-76
2023/06/21 02:56:32;;;;;;;9.90;7.93;;;;;;;16.75;80.46;97223.44;5026534;28;20302;-75
2023/06/21 02:59:53;;;;;;;9.30;7.70;;;;;;;16.81;80.18;97220.41;5026326;28;20276;-78
2023/06/21 03:03:13;;;;;;;9.87;7.87;;;;;;;16.92;79.97;97212.63;5007996;28;20772;-78
2023/06/21 03:06:34;;;;;;;12.80;7.27;;;;;;;17.03;78.91;97215.38;5025044;28;20207;-75
2023/06/21 03:09:55;;;;;;;10.23;8.43;;;;;;;16.85;79.97;97217.47;5026502;28;20630;-79
2023/06/21 03:13:15;;;;;;;12.77;8.13;;;;;;;16.91;80.00;97219.66;5026262;28;20258;-82
2023/06/21 03:16:36;;;;;;;12.23;7.80;;;;;;;17.14;79.51;97223.31;5014100;28;20229;-77
2023/06/21 03:19:18;;;;;;;9.73;7.70;;;;;;;16.72;80.26;97176.53;5016365;28;20739;-77
2023/06/21 03:21:45;;;;;;;11.40;8.10;;;;;;;16.58;81.81;97221.09;5006289;28;20294;-73
2023/06/21 03:24:13;;;;;;;10.97;7.30;;;;;;;16.63;81.47;97216.41;5005221;28;20628;-74
2023/06/21 03:26:44;;;;;;;9.70;7.67;;;;;;;16.73;81.37;97231.34;4989717;28;20231;-77
2023/06/21 03:29:12;;;;;;;11.37;8.07;;;;;;;16.62;81.50;97235.63;5006092;28;20572;-75
2023/06/21 03:31:41;;;;;;;10.07;7.47;;;;;;;16.71;81.45;97232.41;5005942;28;20231;-74
2023/06/21 03:34:08;;;;;;;11.43;7.43;;;;;;;16.81;80.85;97236.09;5007287;28;20233;-75
2023/06/21 03:36:36;;;;;;;12.90;8.43;;;;;;;16.84;80.84;97243.72;4988764;28;20614;-77
2023/06/21 03:39:03;;;;;;;11.87;8.07;;;;;;;17.06;80.26;97236.09;5006514;28;20238;-78
2023/06/21 03:41:30;;;;;;;14.50;8.33;;;;;;;17.30;78.92;97250.13;4998770;28;20209;-81
2023/06/21 03:43:58;;;;;;;12.50;7.90;;;;;;;17.23;79.42;97243.63;4982757;28;20228;-76
2023/06/21 03:46:26;;;;;;;15.83;8.50;;;;;;;17.45;78.00;97241.22;4989766;28;20228;-76
2023/06/21 03:48:54;;;;;;;11.83;8.00;;;;;;;17.85;76.94;97242.69;4990724;28;20205;-74
2023/06/21 03:51:23;;;;;;;11.93;7.80;;;;;;;18.19;75.38;97237.66;4998562;28;20241;-81
2023/06/21 03:53:52;;;;;;;12.37;8.07;;;;;;;18.56;74.18;97244.53;5004557;28;20225;-75
2023/06/21 03:56:19;;;;;;;14.07;7.13;;;;;;;18.69;73.63;97259.22;5014560;28;20416;-73
2023/06/21 03:58:46;;;;;;;9.07;7.20;;;;;;;18.61;73.53;97231.88;5011305;28;20232;-73
2023/06/21 04:01:15;;;;;;;12.40;8.13;;;;;;;18.77;73.40;97245.56;5030435;28;20208;-74
2023/06/21 04:03:42;;;;;;;11.43;7.57;;;;;;;18.74;73.33;97237.88;5014390;28;20206;-71
2023/06/21 04:06:09;;;;;;;10.43;7.57;;;;;;;19.17;72.20;97254.69;5029973;28;20199;-73
2023/06/21 04:08:36;;;;;;;9.37;7.53;;;;;;;19.05;72.49;97258.25;5012938;28;20233;-72
2023/06/21 04:11:03;;;;;;;9.67;7.70;;;;;;;19.06;72.87;97228.41;5031182;28;20344;-73
2023/06/21 04:13:30;;;;;;;10.53;6.83;;;;;;;19.06;73.10;97257.28;5030417;28;20245;-78
2023/06/21 04:15:57;;;;;;;8.90;6.77;;;;;;;19.29;73.10;97237.97;5028964;28;20737;-80
2023/06/21 04:18:24;;;;;;;11.73;7.20;;;;;;;19.39;72.72;97259.97;5012314;28;20214;-81
2023/06/21 04:20:52;;;;;;;10.17;7.50;;;;;;;19.36;72.72;97233.13;5029523;28;20209;-77
2023/06/21 04:23:20;;;;;;;11.03;6.73;;;;;;;19.82;71.14;97249.59;5011216;28;20205;-74
2023/06/21 04:25:47;;;;;;;8.37;6.70;;;;;;;19.75;72.23;97258.91;5012445;28;20228;-81
2023/06/21 04:28:14;;;;;;;7.03;6.33;;;;;;;19.88;70.26;97217.56;5010632;28;20206;-77
2023/06/21 04:30:41;;;;;;;11.40;7.13;;;;;;;20.54;69.67;97253.38;5012185;28;20293;-79
2023/06/21 04:33:09;;;;;;;10.43;6.60;;;;;;;20.74;67.51;97226.22;5028769;28;20240;-76
2023/06/21 04:35:36;;;;;;;9.90;6.00;;;;;;;20.96;66.88;97220.81;5030070;28;20199;-81
2023/06/21 04:38:03;;;;;;;8.77;6.30;;;;;;;21.39;65.39;97240.94;5028851;28;20210;-73
2023/06/21 04:40:30;;;;;;;8.13;6.27;;;;;;;21.37;64.97;97237.59;5029068;28;20201;-75
2023/06/21 04:43:01;;;;;;;9.03;5.90;;;;;;;21.81;64.64;97248.63;5029705;28;20250;-81
2023/06/21 04:45:30;;;;;;;8.17;5.93;;;;;;;21.99;64.11;97256.72;5009957;28;20222;-78
2023/06/21 04:47:57;;;;;;;8.93;6.17;;;;;;;21.88;63.56;97248.91;5029143;28;20237;-79
2023/06/21 04:50:26;;;;;;;10.47;6.80;;;;;;;22.29;62.50;97237.34;5027948;28;20206;-78
2023/06/21 04:52:57;;;;;;;7.47;6.60;;;;;;;22.58;61.17;97244.34;5029536;28;20272;-79
2023/06/21 04:55:27;;;;;;;7.03;5.93;;;;;;;22.58;61.00;97241.69;5028843;28;20205;-78
2023/06/21 04:57:55;;;;;;;8.50;5.90;;;;;;;22.75;60.89;97248.06;5010424;28;20237;-76
2023/06/21 05:00:22;;;;;;;11.40;6.13;;;;;;;22.47;61.25;97247.06;5030531;28;20205;-80
2023/06/21 05:02:49;;;;;;;9.17;6.27;;;;;;;21.81;62.51;97258.28;5028042;28;20615;-81
2023/06/21 05:05:17;;;;;;;8.17;6.30;;;;;;;21.68;64.00;97247.97;5011804;28;20291;-81
2023/06/21 05:07:44;;;;;;;9.23;6.50;;;;;;;21.54;64.43;97250.97;5027828;28;20200;-82
2023/06/21 05:10:11;;;;;;;9.50;5.97;;;;;;;21.75;64.54;97243.00;5028414;28;20205;-78
2023/06/21 05:12:38;;;;;;;10.60;6.30;;;;;;;22.28;63.29;97257.59;5028399;28;20199;-82
2023/06/21 05:15:06;;;;;;;8.13;7.10;;;;;;;22.38;62.98;97253.16;5010930;28;20780;-78
2023/06/21 05:17:34;;;;;;;7.60;6.77;;;;;;;22.43;62.38;97245.69;5029085;28;20204;-82
2023/06/21 05:20:03;;;;;;;7.53;6.37;;;;;;;22.61;61.55;97257.25;5027511;28;20208;-79
2023/06/21 05:22:32;;;;;;;12.63;6.97;;;;;;;22.70;62.54;97262.66;5011582;28;20289;-82
2023/06/21 05:25:04;;;;;;;10.70;6.77;;;;;;;22.61;63.38;97249.31;5027587;28;20240;-79
2023/06/21 05:27:33;;;;;;;10.63;6.80;;;;;;;22.96;62.87;97269.03;5028741;28;20201;-76
2023/06/21 05:30:00;;;;;;;11.27;7.23;;;;;;;23.22;59.56;97262.19;5027797;28;20640;-80
2023/06/21 05:32:32;;;;;;;7.77;6.73;;;;;;;23.45;58.24;97263.56;5028129;28;20211;-79
2023/06/21 05:34:59;;;;;;;10.37;7.10;;;;;;;23.37;57.91;97250.22;5028461;28;20198;-77
2023/06/21 05:37:26;;;;;;;11.87;8.20;;;;;;;23.55;58.13;97266.16;5026974;28;20213;-80
2023/06/21 05:39:53;;;;;;;13.23;7.67;;;;;;;23.82;56.77;97266.22;5010832;28;20233;-78
2023/06/21 05:42:20;;;;;;;8.80;7.20;;;;;;;23.78;57.44;97255.06;5027037;28;20245;-76
2023/06/21 05:44:47;;;;;;;14.80;7.13;;;;;;;24.01;57.14;97266.09;5028850;28;20295;-80
2023/06/21 05:47:14;;;;;;;7.57;6.77;;;;;;;23.85;58.07;97257.97;5027613;28;20341;-81
2023/06/21 05:49:42;;;;;;;10.70;7.00;;;;;;;23.59;59.27;97257.81;5027924;28;20201;-78
2023/06/21 05:52:09;;;;;;;9.50;6.73;;;;;;;23.57;59.89;97253.63;5028907;28;20204;-78
2023/06/21 05:54:41;;;;;;;8.83;6.80;;;;;;;23.79;59.95;97259.38;5026574;28;20235;-80
2023/06/21 05:57:09;;;;;;;8.33;6.87;;;;;;;24.24;58.75;97260.28;5028068;28;20205;-80
2023/06/21 05:59:37;;;;;;;8.10;6.10;;;;;;;24.32;57.42;97262.19;5027155;28;20216;-78
2023/06/21 06:02:05;;;;;;;7.93;5.97;;;;;;;24.54;56.37;97255.63;5028934;28;20286;-79
2023/06/21 06:04:32;;;;;;;11.30;6.00;;;;;;;24.63;56.29;97260.00;5027213;28;20235;-77
2023/06/21 06:07:00;;;;;;;9.57;6.00;;;;;;;24.90;55.58;97265.25;5026476;28;21020;-78
2023/06/21 06:09:27;;;;;;;7.70;5.97;;;;;;;24.88;54.97;97243.38;5028232;28;20288;-80
2023/06/21 06:11:55;;;;;;;7.67;5.93;;;;;;;24.85;55.99;97259.59;5026616;28;20204;-78
2023/06/21 06:14:23;;;;;;;9.80;5.67;;;;;;;24.98;55.59;97252.91;5028052;28;20605;-79
2023/06/21 06:16:51;;;;;;;6.63;5.30;;;;;;;25.14;53.99;97260.16;5025913;28;20201;-76
2023/06/21 06:19:18;;;;;;;8.60;6.10;;;;;;;25.28;54.17;97250.78;5027428;28;20614;-79
2023/06/21 06:21:45;;;;;;;6.27;5.67;;;;;;;25.35;54.79;97252.66;5026319;28;20936;-79
2023/06/21 06:24:12;;;;;;;7.33;5.97;;;;;;;24.89;56.65;97255.66;5026398;28;20197;-78
2023/06/21 06:26:39;;;;;;;8.70;7.30;;;;;;;24.54;58.09;97239.75;5027041;28;20722;-78
2023/06/21 06:29:06;;;;;;;9.63;8.23;;;;;;;25.24;56.71;97250.28;5025853;28;20204;-75
2023/06/21 06:31:34;;;;;;;6.73;5.97;;;;;;;25.42;56.06;97243.13;5027088;28;20224;-76
2023/06/21 06:34:01;;;;;;;10.03;5.57;;;;;;;25.69;54.96;97250.91;5025552;28;20328;-78
2023/06/21 06:36:28;;;;;;;6.50;5.90;;;;;;;25.64;55.65;97239.94;5027036;28;20657;-76
2023/06/21 06:38:55;;;;;;;8.47;6.20;;;;;;;25.30;55.94;97223.16;5025423;28;20213;-82
2023/06/21 06:41:22;;;;;;;8.10;6.03;;;;;;;25.27;56.12;97247.31;5009615;28;20233;-79
2023/06/21 06:43:52;;;;;;;8.43;5.70;;;;;;;25.57;55.83;97246.03;5005538;28;20202;-74
2023/06/21 06:46:19;;;;;;;11.67;6.67;;;;;;;25.82;55.30;97243.31;5025691;28;20208;-79
2023/06/21 06:48:47;;;;;;;8.47;6.73;;;;;;;25.78;55.83;97255.25;4993141;28;20202;-78
2023/06/21 06:51:14;;;;;;;9.10;5.80;;;;;;;26.24;52.22;97253.97;5025965;28;20205;-78
2023/06/21 06:53:42;;;;;;;9.67;6.73;;;;;;;26.20;51.96;97251.78;5026924;28;20238;-80
2023/06/21 06:56:09;;;;;;;10.10;6.10;;;;;;;26.50;51.24;97253.88;5025308;28;20684;-81
2023/06/21 06:58:36;;;;;;;8.37;5.87;;;;;;;26.52;51.53;97236.75;5026884;28;20202;-79
2023/06/21 07:01:05;;;;;;;12.00;5.60;;;;;;;26.89;51.40;97243.47;5026913;28;20610;-77
2023/06/21 07:03:34;;;;;;;4.97;4.57;;;;;;;26.91;50.24;97225.53;5025835;28;20220;-76
2023/06/21 07:06:01;;;;;;;8.07;5.00;;;;;;;26.77;50.14;97236.84;5026868;28;20198;-80
2023/06/21 07:08:28;;;;;;;7.53;5.20;;;;;;;26.65;50.15;97230.97;5024961;28;20225;-76
2023/06/21 07:10:55;;;;;;;5.37;4.37;;;;;;;26.89;50.29;97235.50;5026587;28;20270;-78
2023/06/21 07:13:23;;;;;;;8.80;5.10;;;;;;;27.03;49.41;97235.66;5025118;28;20251;-79
2023/06/21 07:15:51;;;;;;;9.57;5.70;;;;;;;27.24;48.77;97222.66;5026738;28;20229;-78
2023/06/21 07:18:18;;;;;;;7.40;5.60;;;;;;;27.42;49.01;97233.13;5025797;28;20607;-78
2023/06/21 07:20:45;;;;;;;6.83;5.53;;;;;;;27.33;49.95;97232.28;5025910;28;20252;-77
2023/06/21 07:23:13;;;;;;;7.90;5.40;;;;;;;27.27;49.60;97230.31;5026542;28;20289;-77
2023/06/21 07:25:40;;;;;;;5.97;5.27;;;;;;;27.33;50.61;97232.28;5024907;28;20788;-80
2023/06/21 07:28:07;;;;;;;6.50;4.90;;;;;;;27.47;49.56;97236.09;5006711;28;20234;-81
2023/06/21 07:30:34;;;;;;;6.03;5.43;;;;;;;27.39;49.11;97231.66;4990433;28;20198;-81
2023/06/21 07:33:01;;;;;;;7.23;4.53;;;;;;;27.38;45.75;97195.41;5036177;28;20231;-80
2023/06/21 07:35:29;;;;;;;5.40;4.03;;;;;;;27.84;44.63;97235.50;5043261;28;20721;-82
2023/06/21 07:38:36;;;;;;;5.77;4.43;;;;;;;28.06;44.84;97229.44;5046375;28;20206;-80
2023/06/21 07:42:01;;;;;;;4.53;4.00;;;;;;;28.08;42.64;97227.44;5045059;28;20304;-82
2023/06/21 07:45:21;;;;;;;8.20;4.87;;;;;;;28.15;43.21;97229.22;5049338;28;20236;-81
2023/06/21 07:48:42;;;;;;;11.73;7.57;;;;;;;28.24;44.49;97229.19;5047696;28;20271;-80
2023/06/21 07:52:03;;;;;;;6.17;5.37;;;;;;;28.30;44.83;97223.97;5030071;28;20206;-80
2023/06/21 07:55:24;;;;;;;6.90;5.40;;;;;;;28.13;43.58;97207.25;5045002;28;20716;-83
2023/06/21 07:58:46;;;;;;;4.87;4.40;;;;;;;28.16;43.24;97225.56;5028179;28;20225;-81
2023/06/21 08:02:09;;;;;;;11.10;6.97;;;;;;;28.30;44.09;97218.66;5029996;28;20254;-83
2023/06/21 08:05:29;;;;;;;7.13;5.40;;;;;;;27.95;45.29;97221.81;5028664;28;20206;-83
2023/06/21 08:08:50;;;;;;;7.83;5.27;;;;;;;28.26;45.07;97222.69;5027367;28;20290;-82
2023/06/21 08:12:12;;;;;;;10.77;5.13;;;;;;;28.43;43.85;97224.25;5029602;28;20594;-77
2023/06/21 08:15:33;;;;;;;7.50;5.40;;;;;;;28.67;43.19;97220.59;5028900;28;20233;-77
2023/06/21 08:18:54;;;;;;;5.90;4.70;;;;;;;28.80;39.99;97228.84;5025995;28;20226;-78
2023/06/21 08:22:14;;;;;;;5.73;4.83;;;;;;;28.57;40.43;97220.84;5028309;28;20213;-84
2023/06/21 08:25:35;;;;;;;5.63;4.53;;;;;;;28.41;42.08;97230.75;5027268;28;20260;-80
2023/06/21 08:28:56;;;;;;;6.20;5.60;;;;;;;28.64;41.67;97213.81;5029036;28;20198;-79
2023/06/21 08:32:17;;;;;;;8.93;5.63;;;;;;;28.95;41.86;97222.53;5027851;28;20650;-78
2023/06/21 08:35:38;;;;;;;8.30;5.13;;;;;;;28.98;41.86;97219.53;5027373;28;20230;-77
2023/06/21 08:38:19;;;;;;;7.23;5.27;;;;;;;28.90;41.37;97210.75;5029402;28;20207;-80
2023/06/21 08:40:59;;;;;;;20.13;9.30;;;;;;;28.87;42.01;97216.47;5029532;28;20213;-76
2023/06/21 08:43:27;;;;;;;20.33;9.20;;;;;;;29.07;42.13;97216.78;5027029;28;20233;-81
2023/06/21 08:45:55;;;;;;;24.53;10.97;;;;;;;29.02;41.75;97195.16;5029526;28;20229;-80
2023/06/21 08:48:23;;;;;;;66.57;25.00;;;;;;;29.08;40.92;97210.44;5027646;28;20614;-79
2023/06/21 08:50:50;;;;;;;12.00;7.37;;;;;;;29.14;40.07;97209.72;5029242;28;20398;-78
2023/06/21 08:53:29;;;;;;;8.47;6.27;;;;;;;29.14;38.94;97204.38;5028262;28;20676;-79
2023/06/21 08:55:59;;;;;;;8.87;6.83;;;;;;;29.25;39.79;97203.94;5028641;28;20248;-80
2023/06/21 08:58:33;;;;;;;71.47;30.00;;;;;;;29.15;40.22;97214.06;5029259;28;20209;-79
2023/06/21 09:01:03;;;;;;;34.97;16.63;;;;;;;28.70;41.61;97210.44;5027307;28;20882;-79
2023/06/21 09:03:58;;;;;;;18.63;10.60;;;;;;;28.33;41.30;97209.50;5029081;28;20226;-76
2023/06/21 09:06:27;;;;;;;12.27;9.20;;;;;;;28.51;40.61;97216.19;5028252;28;20670;-79
2023/06/21 09:08:54;;;;;;;20.00;11.63;;;;;;;28.15;41.87;97204.44;5015370;28;20645;-81
2023/06/21 09:11:23;;;;;;;17.80;11.53;;;;;;;28.09;42.61;97205.13;5028868;28;20207;-78
2023/06/21 09:13:51;;;;;;;17.37;10.83;;;;;;;28.28;42.06;97193.19;5027470;28;20235;-79
2023/06/21 09:16:19;;;;;;;8.67;5.33;;;;;;;28.66;41.25;97198.47;5028802;28;20241;-79
2023/06/21 09:18:47;;;;;;;16.10;9.23;;;;;;;28.92;40.42;97201.56;5009497;28;20203;-79
2023/06/21 09:21:15;;;;;;;9.23;7.40;;;;;;;28.55;41.69;97188.19;5028615;28;20682;-80
2023/06/21 09:23:42;;;;;;;14.77;7.87;;;;;;;28.56;41.85;97197.03;5027467;28;20210;-78
2023/06/21 09:26:10;;;;;;;6.43;5.77;;;;;;;28.93;41.63;97205.88;5027919;28;20230;-80
2023/06/21 09:28:38;;;;;;;23.87;12.17;;;;;;;29.20;41.52;97195.69;5028323;28;20208;-80
2023/06/21 09:31:05;;;;;;;7.17;5.20;;;;;;;29.21;39.77;97200.81;4993208;28;20202;-80
2023/06/21 09:33:36;;;;;;;5.37;4.87;;;;;;;28.70;41.46;97194.44;5028470;28;20273;-79
2023/06/21 09:36:05;;;;;;;6.60;5.93;;;;;;;28.35;41.55;97155.03;5009045;28;20206;-80
2023/06/21 09:38:33;;;;;;;7.23;4.93;;;;;;;28.12;42.37;97162.16;5028110;28;20229;-78
2023/06/21 09:41:01;;;;;;;6.77;5.47;;;;;;;28.39;41.64;97180.31;5026743;28;20209;-79
2023/06/21 09:43:28;;;;;;;5.80;4.77;;;;;;;28.19;41.66;97150.63;5027592;28;20249;-76
2023/06/21 09:46:09;;;;;;;7.47;5.87;;;;;;;28.84;40.98;97201.66;5028030;28;20214;-78
2023/06/21 09:48:37;;;;;;;5.87;5.03;;;;;;;28.88;40.95;97170.94;5026313;28;20224;-76
2023/06/21 09:51:08;;;;;;;6.27;4.17;;;;;;;29.22;40.29;97193.66;5028064;28;20678;-79
2023/06/21 09:53:36;;;;;;;11.80;7.80;;;;;;;29.27;41.79;97191.25;5026870;28;20214;-75
2023/06/21 09:56:03;;;;;;;6.67;5.37;;;;;;;29.51;39.50;97177.66;5027960;28;20207;-77
2023/06/21 09:58:37;;;;;;;6.67;5.50;;;;;;;29.89;39.14;97202.41;5010461;28;20203;-79
2023/06/21 10:01:07;;;;;;;5.40;4.87;;;;;;;29.93;39.65;97199.19;5027461;28;20199;-79
2023/06/21 10:03:35;;;;;;;26.00;21.60;;;;;;;29.79;40.07;97189.38;5027641;28;20211;-80
2023/06/21 10:06:03;;;;;;;6.23;5.07;;;;;;;29.54;38.76;97186.13;5026222;28;20304;-81
2023/06/21 10:08:33;;;;;;;6.90;5.40;;;;;;;29.51;40.05;97194.50;5027653;28;20214;-80
2023/06/21 10:11:01;;;;;;;7.20;5.10;;;;;;;29.54;39.26;97180.78;5026439;28;20206;-82
2023/06/21 10:13:30;;;;;;;5.00;4.50;;;;;;;29.39;39.68;97185.28;5027709;28;20208;-83
2023/06/21 10:16:00;;;;;;;7.03;6.33;;;;;;;29.61;40.12;97189.69;5026833;28;20634;-82
2023/06/21 10:18:29;;;;;;;8.23;5.90;;;;;;;29.83;39.48;97187.16;5008831;28;20195;-80
2023/06/21 10:21:00;;;;;;;8.10;5.07;;;;;;;29.86;38.96;97158.25;5027217;28;20213;-80
2023/06/21 10:23:31;;;;;;;6.30;4.67;;;;;;;29.77;39.12;97187.88;5025962;28;20593;-79
2023/06/21 10:26:02;;;;;;;7.70;5.00;;;;;;;29.98;38.68;97186.13;5027593;28;20221;-79
2023/06/21 10:28:35;;;;;;;6.57;4.97;;;;;;;30.11;38.23;97191.59;5026172;28;20202;-80
2023/06/21 10:31:08;;;;;;;6.33;5.03;;;;;;;29.62;38.40;97180.69;5027070;28;20206;-79
2023/06/21 10:33:37;;;;;;;5.47;4.63;;;;;;;30.06;37.96;97187.84;5027931;28;20206;-80
2023/06/21 10:36:12;;;;;;;6.93;5.27;;;;;;;29.97;38.11;97151.56;5026365;28;20234;-80
2023/06/21 10:38:53;;;;;;;7.00;4.77;;;;;;;30.05;37.48;97159.47;5027237;28;20240;-79
2023/06/21 10:41:21;;;;;;;5.33;4.83;;;;;;;29.80;38.85;97163.50;5026629;28;20206;-75
2023/06/21 10:43:48;;;;;;;7.83;4.83;;;;;;;29.96;37.72;97168.63;5028113;28;20255;-80
2023/06/21 10:46:15;;;;;;;5.50;4.87;;;;;;;30.06;38.44;97174.50;5026822;28;20212;-77
2023/06/21 10:48:44;;;;;;;7.03;4.67;;;;;;;29.93;38.20;97171.66;5026435;28;20222;-78
2023/06/21 10:51:13;;;;;;;5.17;4.40;;;;;;;30.01;38.66;97163.53;5027338;28;20297;-82
2023/06/21 10:53:41;;;;;;;5.63;5.10;;;;;;;29.81;38.85;97162.47;5025722;28;20276;-79
2023/06/21 10:56:13;;;;;;;6.10;5.50;;;;;;;30.03;38.33;97167.66;5027125;28;20252;-81
2023/06/21 10:58:41;;;;;;;5.70;4.77;;;;;;;29.98;38.75;97177.28;5025882;28;20217;-79
2023/06/21 11:01:12;;;;;;;5.87;5.20;;;;;;;29.60;38.82;97172.03;5026714;28;20221;-76
2023/06/21 11:03:39;;;;;;;6.67;5.17;;;;;;;29.79;38.44;97169.84;5027785;28;20224;-77
2023/06/21 11:06:29;;;;;;;5.30;4.70;;;;;;;29.77;38.47;97172.69;5025808;28;20210;-83
2023/06/21 11:09:16;;;;;;;6.23;5.50;;;;;;;29.75;39.51;97161.38;5027231;28;20268;-82
2023/06/21 11:11:53;;;;;;;6.30;4.73;;;;;;;29.85;38.11;97180.59;5025592;28;20280;-80
2023/06/21 11:14:30;;;;;;;6.17;5.20;;;;;;;29.66;39.39;97176.63;5027111;28;20236;-80
2023/06/21 11:17:15;;;;;;;7.10;5.10;;;;;;;30.05;39.20;97173.66;5027024;28;20241;-80
2023/06/21 11:19:47;;;;;;;6.30;4.60;;;;;;;30.26;38.03;97171.03;5025310;28;20228;-79
2023/06/21 11:22:24;;;;;;;6.43;4.50;;;;;;;30.64;37.68;97170.81;5027046;28;20297;-79
2023/06/21 11:24:58;;;;;;;9.57;6.93;;;;;;;30.66;38.32;97158.91;5025499;28;20689;-79
2023/06/21 11:27:27;;;;;;;6.63;5.23;;;;;;;30.72;37.28;97165.31;5026274;28;21013;-78
2023/06/21 11:29:59;;;;;;;5.93;4.67;;;;;;;30.83;37.38;97149.56;5026776;28;20673;-76
2023/06/21 11:32:37;;;;;;;5.70;4.77;;;;;;;30.88;37.28;97151.69;5025068;28;20756;-82
2023/06/21 11:35:09;;;;;;;6.57;5.87;;;;;;;31.11;37.54;97173.69;5027894;28;20634;-80
2023/06/21 11:37:49;;;;;;;6.47;5.57;;;;;;;31.02;36.67;97137.41;4992642;28;20202;-76
2023/06/21 11:40:26;;;;;;;6.17;4.80;;;;;;;30.76;37.13;97158.56;5026473;28;20241;-80
2023/06/21 11:42:54;;;;;;;8.37;5.07;;;;;;;30.82;37.32;97163.97;5026298;28;20203;-77
2023/06/21 11:45:32;;;;;;;5.53;4.60;;;;;;;30.71;36.60;97164.50;5025182;28;20293;-82
2023/06/21 11:48:02;;;;;;;5.20;4.70;;;;;;;30.37;37.13;97169.72;5026727;28;20313;-78
2023/06/21 11:50:41;;;;;;;7.97;4.83;;;;;;;30.22;37.65;97164.41;5007627;28;20213;-80
2023/06/21 11:53:26;;;;;;;6.00;4.63;;;;;;;30.11;37.33;97164.88;5026584;28;20206;-83
2023/06/21 11:55:56;;;;;;;8.50;7.70;;;;;;;30.26;37.31;97168.34;5026236;28;20280;-82
2023/06/21 11:58:24;;;;;;;7.83;5.10;;;;;;;30.00;37.80;97161.88;5025046;28;20199;-77
2023/06/21 12:00:52;;;;;;;7.50;6.60;;;;;;;30.10;37.95;97170.41;5008471;28;20271;-83
2023/06/21 12:03:26;;;;;;;6.40;5.30;;;;;;;30.18;37.38;97160.44;5025095;28;20199;-78
2023/06/21 12:05:59;;;;;;;5.23;4.73;;;;;;;30.16;37.61;97149.13;5026870;28;20197;-83
2023/06/21 12:08:28;;;;;;;6.10;5.43;;;;;;;30.07;40.25;97146.78;5025650;28;20207;-81
2023/06/21 12:10:59;;;;;;;5.83;5.30;;;;;;;30.21;39.97;97149.38;5025551;28;20591;-80
2023/06/21 12:13:27;;;;;;;5.30;4.80;;;;;;;30.03;39.83;97121.41;5026406;28;20202;-81
2023/06/21 12:16:05;;;;;;;5.83;5.13;;;;;;;30.42;39.61;97145.91;5024471;28;20238;-79
2023/06/21 12:18:36;;;;;;;6.87;4.83;;;;;;;30.62;39.54;97157.63;5009764;28;20236;-82
2023/06/21 12:21:07;;;;;;;6.15;4.65;;;;;;;30.75;39.23;97146.22;5028151;28;20214;-81
2023/06/21 12:23:37;;;;;;;6.00;4.70;;;;;;;30.88;38.59;97162.41;5029984;28;20241;-78
2023/06/21 12:26:05;;;;;;;6.87;4.90;;;;;;;30.90;38.71;97155.00;5029051;28;20202;-78
2023/06/21 12:28:34;;;;;;;7.00;4.70;;;;;;;30.40;39.51;97150.63;5028514;28;20768;-81
2023/06/21 12:31:06;;;;;;;11.07;5.50;;;;;;;30.60;38.86;97153.50;5029292;28;20265;-81